Flight Track Log - Related Links

Times and Time Zones

All times are in EDT time to prevent confusion due to time zone crossing. See the SWA34 flight status page for this flight to view local times or setup timezone preferences in your user account.

Time Position Orientation Groundspeed Altitude Reporting Facility
EDT Latitude Longitude Course Direction KTS MPH feet Rate Location/Type
Wed 10:26:41 AM 36.9286 -76.1894 North 193 222 1,800  Level Washington Center
Wed 10:27:40 AM 36.9386 -76.2728 279° West 263 303 3,900 2,471 Climbing Washington Center
Wed 10:28:40 AM 36.9253 -76.3767 261° West 296 341 6,700 3,158 Climbing Washington Center
Wed 10:29:53 AM 36.8956 -76.4878 252° West 322 371 10,900 3,069 Climbing Washington Center
Wed 10:30:51 AM 36.8569 -76.5992 247° West 327 376 13,400 2,723 Climbing Washington Center
Wed 10:31:52 AM 36.8186 -76.7075 246° West 333 383 16,300 2,622 Climbing Washington Center
Wed 10:32:50 AM 36.7778 -76.8289 247° West 346 398 18,600 2,420 Climbing Washington Center
Wed 10:33:51 AM 36.7347 -76.9525 247° West 378 435 21,100 2,380 Climbing Washington Center
Wed 10:34:51 AM 36.6853 -77.0733 243° Southwest 392 451 23,400 2,118 Climbing Washington Center
Wed 10:35:50 AM 36.6231 -77.1964 238° Southwest 408 470 25,300 1,815 Climbing Washington Center
Wed 10:36:50 AM 36.5342 -77.3006 223° Southwest 426 490 27,000 1,850 Climbing Washington Center
Wed 10:37:50 AM 36.4386 -77.4019 220° Southwest 437 503 29,000 1,918 Climbing Washington Center
Wed 10:38:52 AM 36.3494 -77.5031 222° Southwest 444 511 30,900 2,150 Climbing Washington Center
Wed 10:39:50 AM 36.2539 -77.5986 219° Southwest 444 511 33,300 1,576 Climbing Washington Center
Wed 10:40:50 AM 36.1647 -77.6939 221° Southwest 438 504 34,000 344 Climbing Washington Center
Wed 10:41:52 AM 36.0756 -77.7892 221° Southwest 438 504 34,000 1,000 Level Washington Center
Wed 10:42:50 AM 35.9839 -77.8817 219° Southwest 438 504 36,000 1,017 Climbing Washington Center
Wed 10:43:50 AM 35.8967 -77.9742 221° Southwest 433 498 36,000  Level Washington Center
Wed 10:44:51 AM 35.8092 -78.0636 220° Southwest 433 498 36,000  Level Washington Center
Wed 10:45:52 AM 35.7175 -78.1581 220° Southwest 433 498 36,000  Level Washington Center
Wed 10:46:50 AM 35.6281 -78.2472 219° Southwest 433 498 36,000  Level Washington Center
Wed 10:47:50 AM 35.5383 -78.3386 220° Southwest 433 498 36,000  Level Washington Center
Wed 10:48:50 AM 35.4483 -78.4350 221° Southwest 434 499 36,000  Level Washington Center
Wed 10:49:51 AM 35.3692 -78.5136 219° Southwest 429 494 36,000  Level Washington Center
Wed 10:50:51 AM 35.2772 -78.6069 220° Southwest 429 494 36,000  Level Washington Center
Wed 10:51:52 AM 35.1894 -78.6978 220° Southwest 429 494 36,000  Level Washington Center
Wed 10:52:52 AM 35.1058 -78.7833 220° Southwest 414 476 36,000  Level Washington Center
Wed 10:53:50 AM 35.0200 -78.8714 220° Southwest 414 476 36,000  Level Washington Center
Wed 10:54:51 AM 34.9339 -78.9589 220° Southwest 414 476 36,000  Level Washington Center
Wed 10:55:52 AM 34.8481 -79.0439 219° Southwest 414 476 36,000  Level Washington Center
Wed 10:58:04 AM 34.6556 -79.2356 219° Southwest 392 451 36,000  Level Jacksonville Center
Wed 10:59:04 AM 34.5703 -79.3222 220° Southwest 392 451 36,000  Level Jacksonville Center
Wed 11:00:04 AM 34.4750 -79.4169 219° Southwest 400 460 36,000  Level Jacksonville Center
Wed 11:01:04 AM 34.3997 -79.4928 220° Southwest 400 460 36,000  Level Jacksonville Center
Wed 11:02:04 AM 34.3144 -79.5767 219° Southwest 400 460 36,000  Level Jacksonville Center
Wed 11:03:04 AM 34.2333 -79.6653 222° Southwest 400 460 36,000 -200 Level Jacksonville Center
Wed 11:04:04 AM 34.1967 -79.7819 249° West 383 441 35,600 -700 Descending Jacksonville Center
Wed 11:05:04 AM 34.1642 -79.9036 252° West 371 427 34,600 -1,000 Descending Jacksonville Center
Wed 11:06:04 AM 34.1336 -80.0275 253° West 387 445 33,600 -950 Descending Jacksonville Center
Wed 11:07:04 AM 34.0989 -80.1542 252° West 398 458 32,700 -850 Descending Jacksonville Center
Wed 11:08:04 AM 34.0642 -80.2856 252° West 409 471 31,900 -350 Descending Jacksonville Center
Wed 11:09:04 AM 34.0353 -80.4092 254° West 409 471 32,000 50 Climbing Jacksonville Center
Wed 11:10:04 AM 33.9964 -80.5531 252° West 404 465 32,000  Level Jacksonville Center
Wed 11:11:04 AM 33.9589 -80.6817 251° West 404 465 32,000  Level Jacksonville Center
Wed 11:12:04 AM 33.9256 -80.8103 253° West 404 465 32,000  Level Jacksonville Center
Wed 11:13:04 AM 33.8881 -80.9411 251° West 409 471 32,000  Level Jacksonville Center
Wed 11:14:04 AM 33.8525 -81.0694 252° West 409 471 32,000  Level Jacksonville Center
Wed 11:15:04 AM 33.8167 -81.1978 251° West 409 471 32,000  Level Jacksonville Center
Wed 11:16:04 AM 33.7786 -81.3233 250° West 409 471 32,000  Level Jacksonville Center
Wed 11:17:52 AM 33.7086 -81.5517 250° West 408 470 32,000  Level Atlanta Center
Wed 11:18:52 AM 33.6692 -81.6775 249° West 408 470 32,000  Level Atlanta Center
Wed 11:19:52 AM 33.6339 -81.8008 251° West 408 470 32,000  Level Atlanta Center
Wed 11:20:52 AM 33.5967 -81.9264 250° West 408 470 32,000 -100 Level Atlanta Center
Wed 11:21:52 AM 33.5589 -82.0494 250° West 408 470 31,800 -600 Descending Atlanta Center
Wed 11:22:52 AM 33.5192 -82.1800 250° West 408 470 30,800 -950 Descending Atlanta Center
Wed 11:23:52 AM 33.4836 -82.3153 253° West 418 481 29,900 -950 Descending Atlanta Center
Wed 11:24:52 AM 33.4417 -82.4431 249° West 426 490 28,900 -950 Descending Atlanta Center
Wed 11:25:52 AM 33.4097 -82.5581 252° West 426 490 28,000 -1,000 Descending Atlanta Center
Wed 11:26:52 AM 33.3714 -82.6856 250° West 421 484 26,900 -1,050 Descending Atlanta Center
Wed 11:27:52 AM 33.3331 -82.8106 250° West 406 467 25,900 -1,000 Descending Atlanta Center
Wed 11:28:52 AM 33.2967 -82.9328 250° West 397 457 24,900 -950 Descending Atlanta Center
Wed 11:29:52 AM 33.2539 -83.0600 248° West 404 465 24,000 -950 Descending Atlanta Center
Wed 11:30:52 AM 33.2131 -83.1847 249° West 404 465 23,000 -1,050 Descending Atlanta Center
Wed 11:31:52 AM 33.1742 -83.3167 251° West 404 465 21,900 -1,050 Descending Atlanta Center
Wed 11:32:52 AM 33.1331 -83.4386 248° West 399 459 20,900 -1,300 Descending Atlanta Center
Wed 11:33:52 AM 33.0961 -83.5578 250° West 389 448 19,300 -2,450 Descending Atlanta Center
Wed 11:34:52 AM 33.1236 -83.6742 286° West 365 420 16,000 -2,939 Descending Atlanta Center
Wed 11:35:30 AM 33.1667 -83.7333 311° West 380 437 14,500 -1,224 Descending Atlanta TRACON
Wed 11:36:30 AM 33.2333 -83.8333 309° West 350 403 14,000 -250 Descending Atlanta TRACON
Wed 11:37:30 AM 33.3000 -83.9333 309° West 367 422 14,000 -293 Level Atlanta TRACON
Wed 11:37:52 AM 33.3161 -83.9592 307° West 366 421 13,600 -1,098 Descending Atlanta Center
Wed 11:38:52 AM 33.3789 -84.0561 308° West 373 429 12,500 -850 Descending Atlanta Center
Wed 11:39:52 AM 33.4414 -84.1508 308° West 373 429 11,900 -367 Descending Atlanta Center
Wed 11:40:30 AM 33.4833 -84.2000 316° Northwest 316 364 11,900 61 Level Atlanta TRACON
Wed 11:41:30 AM 33.5333 -84.2833 306° West 269 310 12,000 -400 Climbing Atlanta TRACON
Wed 11:42:30 AM 33.5500 -84.3667 284° West 274 315 11,100 -950 Descending Atlanta TRACON
Wed 11:43:30 AM 33.5500 -84.4500 270° West 274 315 10,100 -1,041 Descending Atlanta TRACON
Wed 11:44:31 AM 33.5500 -84.5333 270° West 256 295 9,000 -1,050 Descending Atlanta TRACON
Wed 11:45:30 AM 33.5500 -84.6167 270° West 244 281 8,000 -1,361 Descending Atlanta TRACON
Wed 11:46:30 AM 33.5500 -84.7000 270° West 250 288 6,300 -1,550 Descending Atlanta TRACON
Wed 11:47:30 AM 33.5500 -84.7833 270° West 255 293 4,900 -1,250 Descending Atlanta TRACON
Wed 11:48:30 AM 33.6000 -84.8167 331° Northwest 244 281 3,800 -800 Descending Atlanta TRACON
Wed 11:49:30 AM 33.6333 -84.7833 40° Northeast 182 209 3,300 -400 Descending Atlanta TRACON
Wed 11:50:30 AM 33.6333 -84.7333 90° East 157 181 3,000 -150 Descending Atlanta TRACON
Wed 11:51:30 AM 33.6333 -84.6667 90° East 156 180 3,000  Level Atlanta TRACON
Wed 11:52:30 AM 33.6333 -84.6167 90° East 160 184 3,000  Level Atlanta TRACON
Wed 11:53:30 AM 33.6333 -84.5667 90° East 158 182 3,000 -400 Level Atlanta TRACON
Wed 11:54:30 AM 33.6333 -84.5167 90° East 145 167 2,200 -750 Descending Atlanta TRACON
Wed 11:55:30 AM 33.6333 -84.4833 90° East 121 139 1,500 -700 Descending Atlanta TRACON
Wed 11:57:00 AM 33.6367 -84.4279 64° Northeast  Level Estimated
Wed 12:04:00 PM 33.6367 -84.4279 64° Northeast  Level Estimated

Login

Don't have an account? Register now (free) for customized features, flight alerts, and more!